createdAt,value
2023-02-09T00:01:37.501Z,14.45
2023-02-09T00:04:04.362Z,14.15
2023-02-09T00:06:31.119Z,13.68
2023-02-09T00:08:59.012Z,13.43
2023-02-09T00:11:46.559Z,13.23
2023-02-09T00:14:16.513Z,12.95
2023-02-09T00:16:43.600Z,13.45
2023-02-09T00:19:11.688Z,14.48
2023-02-09T00:21:39.170Z,14.52
2023-02-09T00:24:06.808Z,14.52
2023-02-09T00:26:33.957Z,14.90
2023-02-09T00:29:00.667Z,14.27
2023-02-09T00:31:27.393Z,13.98
2023-02-09T00:33:54.069Z,14.88
2023-02-09T00:36:20.905Z,14.52
2023-02-09T00:38:47.570Z,12.80
2023-02-09T00:41:15.547Z,13.90
2023-02-09T00:43:42.251Z,14.15
2023-02-09T00:46:09.595Z,13.65
2023-02-09T00:48:36.503Z,14.63
2023-02-09T00:51:03.278Z,13.70
2023-02-09T00:53:30.037Z,14.55
2023-02-09T00:55:57.209Z,12.85
2023-02-09T00:58:23.882Z,12.82
2023-02-09T01:00:50.573Z,14.68
2023-02-09T01:03:17.272Z,14.95
2023-02-09T01:05:44.045Z,13.30
2023-02-09T01:08:10.714Z,13.50
2023-02-09T01:10:38.345Z,13.85
2023-02-09T01:13:05.586Z,13.43
2023-02-09T01:15:32.499Z,13.60
2023-02-09T01:17:59.636Z,14.57
2023-02-09T01:20:26.836Z,14.85
2023-02-09T01:22:53.584Z,14.30
2023-02-09T01:25:20.315Z,13.35
2023-02-09T01:27:47.037Z,14.32
2023-02-09T01:30:14.491Z,13.32
2023-02-09T01:32:41.151Z,13.80
2023-02-09T01:35:08.210Z,13.73
2023-02-09T01:37:35.985Z,14.25
2023-02-09T01:40:04.036Z,14.73
2023-02-09T01:42:30.719Z,14.50
2023-02-09T01:45:20.538Z,13.90
2023-02-09T01:47:54.384Z,13.82
2023-02-09T01:50:21.967Z,13.18
2023-02-09T01:52:49.486Z,13.57
2023-02-09T01:55:20.576Z,15.48
2023-02-09T01:57:52.645Z,15.13
2023-02-09T02:00:21.525Z,14.02
2023-02-09T02:03:05.817Z,13.45
2023-02-09T02:05:37.274Z,14.52
2023-02-09T02:08:16.562Z,13.85
2023-02-09T02:10:43.412Z,14.48
2023-02-09T02:13:10.367Z,15.30
2023-02-09T02:16:03.516Z,14.18
2023-02-09T02:19:15.003Z,14.98
2023-02-09T02:22:09.557Z,14.75
2023-02-09T02:25:07.936Z,14.75
2023-02-09T02:27:56.515Z,14.40
2023-02-09T02:30:50.805Z,14.70
2023-02-09T02:33:39.889Z,13.38
2023-02-09T02:36:20.760Z,10.95
2023-02-09T02:39:16.216Z,13.32
2023-02-09T02:42:10.717Z,15.38
2023-02-09T02:44:41.664Z,15.50
2023-02-09T02:47:13.754Z,13.50
2023-02-09T02:49:44.814Z,15.20
2023-02-09T02:52:11.955Z,16.85
2023-02-09T02:55:09.805Z,14.07
2023-02-09T02:57:41.714Z,15.50
2023-02-09T03:00:16.928Z,14.63
2023-02-09T03:02:48.312Z,15.98
2023-02-09T03:05:17.199Z,14.80
2023-02-09T03:07:44.221Z,15.68
2023-02-09T03:10:30.335Z,15.55
2023-02-09T03:13:37.270Z,15.38
2023-02-09T03:16:47.903Z,14.85
2023-02-09T03:19:43.052Z,14.82
2023-02-09T03:22:35.876Z,14.93
2023-02-09T03:25:07.868Z,15.05
2023-02-09T03:27:42.936Z,15.13
2023-02-09T03:30:14.061Z,14.80
2023-02-09T03:32:43.151Z,14.65
2023-02-09T03:35:12.889Z,15.17
2023-02-09T03:37:39.581Z,13.85
2023-02-09T03:40:06.759Z,14.68
2023-02-09T03:42:33.505Z,14.55
2023-02-09T03:45:00.158Z,15.02
2023-02-09T03:47:26.923Z,15.27
2023-02-09T03:49:53.564Z,14.90
2023-02-09T03:52:20.187Z,14.65
2023-02-09T03:54:47.876Z,14.98
2023-02-09T03:57:14.534Z,15.05
2023-02-09T03:59:42.051Z,15.48
2023-02-09T04:02:10.187Z,14.98
2023-02-09T04:04:37.567Z,13.90
2023-02-09T04:07:04.248Z,15.10
2023-02-09T04:09:30.900Z,14.55
2023-02-09T04:11:57.697Z,14.10
2023-02-09T04:14:24.439Z,15.35
2023-02-09T04:16:51.099Z,14.85
2023-02-09T04:19:17.786Z,14.43
2023-02-09T04:21:44.617Z,14.90
2023-02-09T04:24:11.422Z,14.90
2023-02-09T04:26:38.356Z,14.25
2023-02-09T04:29:05.090Z,14.52
2023-02-09T04:31:32.164Z,15.32
2023-02-09T04:33:58.855Z,15.85
2023-02-09T04:36:25.586Z,14.63
2023-02-09T04:38:52.439Z,15.02
2023-02-09T04:41:19.325Z,14.07
2023-02-09T04:43:46.894Z,15.05
2023-02-09T04:46:16.123Z,14.27
2023-02-09T04:48:43.516Z,14.20
2023-02-09T04:51:10.525Z,15.15
2023-02-09T04:53:37.442Z,14.90
2023-02-09T04:56:04.477Z,13.25
2023-02-09T04:58:49.742Z,13.88
2023-02-09T05:01:20.769Z,14.00
2023-02-09T05:03:47.569Z,16.10
2023-02-09T05:06:14.337Z,14.13
2023-02-09T05:08:41.189Z,15.05
2023-02-09T05:11:07.854Z,13.73
2023-02-09T05:13:34.858Z,15.00
2023-02-09T05:16:09.189Z,13.15
2023-02-09T05:18:36.632Z,14.00
2023-02-09T05:21:03.583Z,14.82
2023-02-09T05:23:30.646Z,14.00
2023-02-09T05:25:57.409Z,14.07
2023-02-09T05:28:25.348Z,14.65
2023-02-09T05:30:53.888Z,13.45
2023-02-09T05:33:24.929Z,13.93
2023-02-09T05:35:53.483Z,15.02
2023-02-09T05:38:20.235Z,14.23
2023-02-09T05:40:47.299Z,14.48
2023-02-09T05:43:14.245Z,14.75
2023-02-09T05:45:40.927Z,14.07
2023-02-09T05:48:07.743Z,13.75
2023-02-09T05:50:35.944Z,13.93
2023-02-09T05:53:02.706Z,13.55
2023-02-09T05:55:29.626Z,12.98
2023-02-09T05:57:56.297Z,13.02
2023-02-09T06:00:25.021Z,12.70
2023-02-09T06:02:51.943Z,15.38
2023-02-09T06:05:20.801Z,15.82
2023-02-09T06:07:48.145Z,16.60
2023-02-09T06:10:14.947Z,17.00
2023-02-09T06:12:41.627Z,16.75
2023-02-09T06:15:08.694Z,16.85
2023-02-09T06:17:35.348Z,15.05
2023-02-09T06:20:02.519Z,16.63
2023-02-09T06:22:30.031Z,15.73
2023-02-09T06:24:56.704Z,17.23
2023-02-09T06:27:23.587Z,18.15
2023-02-09T06:29:50.258Z,17.70
2023-02-09T06:32:17.039Z,17.23
2023-02-09T06:34:43.744Z,19.20
2023-02-09T06:37:10.361Z,18.15
2023-02-09T06:39:37.040Z,17.20
2023-02-09T06:42:03.846Z,18.48
2023-02-09T06:44:30.546Z,18.27
2023-02-09T06:46:57.278Z,19.17
2023-02-09T06:49:25.332Z,18.80
2023-02-09T06:51:52.349Z,20.40
2023-02-09T06:54:20.030Z,21.45
2023-02-09T06:56:47.842Z,20.33
2023-02-09T06:59:14.619Z,20.10
2023-02-09T07:01:41.478Z,20.35
2023-02-09T07:04:08.195Z,19.10
2023-02-09T07:06:35.044Z,18.73
2023-02-09T07:09:01.766Z,17.15
2023-02-09T07:11:28.478Z,17.17
2023-02-09T07:13:55.123Z,17.55
2023-02-09T07:16:21.921Z,18.23
2023-02-09T07:18:48.652Z,18.70
2023-02-09T07:21:18.335Z,17.90
2023-02-09T07:23:46.084Z,17.05
2023-02-09T07:26:15.485Z,18.88
2023-02-09T07:28:43.095Z,19.00
2023-02-09T07:31:12.655Z,19.48
2023-02-09T07:33:39.550Z,18.30
2023-02-09T07:36:07.976Z,15.98
2023-02-09T07:38:35.487Z,18.35
2023-02-09T07:41:04.368Z,18.77
2023-02-09T07:43:31.320Z,17.10
2023-02-09T07:46:07.031Z,15.98
2023-02-09T07:48:34.464Z,16.20
2023-02-09T07:51:01.382Z,17.77
2023-02-09T07:53:28.681Z,16.33
2023-02-09T07:55:55.461Z,16.20
2023-02-09T07:58:22.270Z,16.15
2023-02-09T08:00:50.457Z,18.67
2023-02-09T08:03:20.971Z,18.23
2023-02-09T08:05:55.636Z,18.00
2023-02-09T08:08:22.363Z,17.73
2023-02-09T08:10:49.411Z,18.42
2023-02-09T08:13:16.388Z,17.42
2023-02-09T08:15:55.242Z,18.70
2023-02-09T08:18:36.009Z,18.60
2023-02-09T08:21:05.283Z,20.33
2023-02-09T08:23:34.844Z,24.20
2023-02-09T08:26:06.669Z,21.80
2023-02-09T08:28:43.750Z,20.42
2023-02-09T08:31:13.604Z,24.73
2023-02-09T08:33:40.613Z,25.25
2023-02-09T08:36:07.587Z,23.15
2023-02-09T08:38:35.557Z,22.42
2023-02-09T08:41:04.618Z,23.55
2023-02-09T08:43:31.848Z,23.33
2023-02-09T08:46:06.967Z,22.63
2023-02-09T08:48:35.902Z,22.90
2023-02-09T08:51:03.604Z,23.97
2023-02-09T08:53:30.795Z,26.35
2023-02-09T08:55:57.456Z,23.95
2023-02-09T08:58:25.570Z,23.85
2023-02-09T09:00:59.149Z,24.80
2023-02-09T09:03:31.563Z,24.17
2023-02-09T09:06:06.749Z,23.40
2023-02-09T09:08:35.135Z,23.60
2023-02-09T09:11:01.884Z,24.58
2023-02-09T09:13:28.606Z,24.35
2023-02-09T09:15:55.604Z,24.05
2023-02-09T09:18:24.359Z,25.45
2023-02-09T09:20:51.952Z,24.58
2023-02-09T09:23:19.029Z,23.33
2023-02-09T09:25:45.980Z,24.90
2023-02-09T09:28:12.886Z,25.90
2023-02-09T09:30:39.542Z,28.05
2023-02-09T09:33:06.224Z,26.75
2023-02-09T09:35:32.949Z,26.27
2023-02-09T09:38:00.803Z,26.67
2023-02-09T09:40:33.926Z,25.75
2023-02-09T09:43:04.409Z,26.45
2023-02-09T09:45:35.320Z,25.42
2023-02-09T09:48:02.416Z,26.50
2023-02-09T09:50:41.247Z,26.65
2023-02-09T09:53:07.867Z,26.30
2023-02-09T09:55:35.992Z,26.02
2023-02-09T09:58:06.803Z,27.02
2023-02-09T10:00:40.093Z,26.10
2023-02-09T10:03:18.204Z,26.50
2023-02-09T10:05:47.821Z,28.35
2023-02-09T10:08:29.145Z,27.50
2023-02-09T10:11:06.151Z,30.77
2023-02-09T10:13:35.142Z,28.80
2023-02-09T10:16:02.354Z,27.83
2023-02-09T10:18:30.168Z,28.10
2023-02-09T10:21:04.967Z,26.42
2023-02-09T10:23:49.733Z,29.25
2023-02-09T10:26:25.502Z,25.98
2023-02-09T10:28:55.972Z,26.17
2023-02-09T10:31:24.445Z,27.25
2023-02-09T10:34:04.584Z,26.05
2023-02-09T10:39:17.019Z,25.52
2023-02-09T10:41:47.044Z,27.38
2023-02-09T10:46:47.453Z,27.60
2023-02-09T10:49:35.355Z,28.15
2023-02-09T10:52:33.164Z,27.08
2023-02-09T10:55:34.405Z,27.13
2023-02-09T10:58:29.434Z,26.55
2023-02-09T11:01:11.337Z,25.52
2023-02-09T11:03:56.751Z,24.02
2023-02-09T11:06:23.616Z,25.38
2023-02-09T11:08:56.800Z,24.90
2023-02-09T11:11:30.205Z,23.42
2023-02-09T11:13:57.608Z,24.73
2023-02-09T11:16:44.408Z,23.40
2023-02-09T11:19:22.527Z,14.93
2023-02-09T11:21:57.983Z,15.07
2023-02-09T11:24:43.525Z,13.75
2023-02-09T11:27:23.766Z,11.65
2023-02-09T11:30:06.291Z,11.55
2023-02-09T11:32:43.818Z,10.95
2023-02-09T11:35:18.998Z,12.70
2023-02-09T11:37:53.654Z,11.55
2023-02-09T11:40:28.650Z,12.18
2023-02-09T11:43:10.664Z,12.32
2023-02-09T11:45:42.234Z,11.23
2023-02-09T11:48:28.238Z,11.68
2023-02-09T11:51:18.733Z,10.57
2023-02-09T11:54:04.671Z,9.55
2023-02-09T11:56:36.868Z,10.80
2023-02-09T11:59:28.638Z,10.82
2023-02-09T12:02:13.948Z,10.73
2023-02-09T12:04:54.381Z,11.85
2023-02-09T12:07:34.924Z,11.07
2023-02-09T12:10:30.210Z,11.85
2023-02-09T12:13:19.949Z,11.60
2023-02-09T12:15:54.341Z,11.73
2023-02-09T12:18:25.053Z,12.15
2023-02-09T12:20:57.386Z,12.52
2023-02-09T12:23:45.157Z,12.25
2023-02-09T12:26:11.805Z,12.27
2023-02-09T12:28:42.601Z,12.77
2023-02-09T12:31:24.641Z,13.07
2023-02-09T12:34:10.639Z,11.55
2023-02-09T12:36:39.501Z,12.68
2023-02-09T12:39:24.240Z,12.27
2023-02-09T12:41:50.977Z,12.55
2023-02-09T12:44:18.445Z,13.43
2023-02-09T12:46:45.250Z,13.43
2023-02-09T12:49:11.929Z,12.43
2023-02-09T12:51:50.330Z,13.27
2023-02-09T12:54:46.757Z,12.68
2023-02-09T12:57:16.658Z,13.32
2023-02-09T12:59:52.795Z,13.25
2023-02-09T13:02:44.766Z,12.98
2023-02-09T13:05:38.076Z,13.35
2023-02-09T13:08:16.344Z,12.93
2023-02-09T13:10:50.631Z,12.82
2023-02-09T13:13:20.056Z,13.45
2023-02-09T13:16:04.788Z,13.55
2023-02-09T13:18:46.558Z,14.30
2023-02-09T13:21:33.098Z,13.93
2023-02-09T13:24:15.939Z,14.50
2023-02-09T13:26:54.571Z,12.73
2023-02-09T13:29:25.569Z,13.57
2023-02-09T13:32:23.769Z,12.70
2023-02-09T13:34:56.271Z,12.63
2023-02-09T13:37:49.857Z,12.68
2023-02-09T13:40:32.080Z,12.25
2023-02-09T13:43:10.998Z,12.65
2023-02-09T13:45:53.730Z,12.55
2023-02-09T13:48:24.500Z,11.88
2023-02-09T13:50:52.709Z,11.57
2023-02-09T13:53:22.831Z,11.57
2023-02-09T13:55:53.087Z,12.00
2023-02-09T13:58:27.495Z,12.95
2023-02-09T14:01:03.018Z,12.25
2023-02-09T14:03:34.524Z,12.32
2023-02-09T14:06:15.413Z,11.65
2023-02-09T14:08:42.710Z,12.02
2023-02-09T14:11:41.900Z,12.48
2023-02-09T14:14:26.033Z,13.07
2023-02-09T14:17:24.529Z,11.45
2023-02-09T14:19:52.877Z,11.63
2023-02-09T14:22:36.069Z,10.73
2023-02-09T14:25:12.686Z,12.63
2023-02-09T14:27:40.476Z,11.65
2023-02-09T14:30:29.621Z,11.77
2023-02-09T14:32:58.487Z,12.00
2023-02-09T14:35:26.625Z,11.23
2023-02-09T14:37:55.707Z,11.52
2023-02-09T14:40:28.471Z,11.98
2023-02-09T14:43:00.109Z,12.20
2023-02-09T14:45:46.446Z,10.98
2023-02-09T14:48:23.586Z,12.18
2023-02-09T14:50:53.848Z,11.13
2023-02-09T14:55:48.339Z,10.60
2023-02-09T14:58:22.440Z,11.20
2023-02-09T15:00:50.032Z,10.93
2023-02-09T15:03:16.720Z,11.85
2023-02-09T15:05:44.161Z,10.80
2023-02-09T15:08:17.950Z,11.40
2023-02-09T15:10:48.635Z,11.07
2023-02-09T15:13:16.134Z,11.20
2023-02-09T15:15:43.458Z,11.57
2023-02-09T15:18:19.936Z,11.25
2023-02-09T15:20:46.962Z,10.82
2023-02-09T15:23:13.998Z,11.50
2023-02-09T15:25:42.115Z,10.82
2023-02-09T15:28:34.965Z,11.65
2023-02-09T15:31:01.666Z,11.35
2023-02-09T15:33:29.202Z,10.20
2023-02-09T15:35:58.855Z,11.07
2023-02-09T15:38:27.576Z,10.63
2023-02-09T15:41:13.095Z,12.02
2023-02-09T15:43:58.434Z,10.55
2023-02-09T15:46:43.982Z,11.27
2023-02-09T15:49:10.783Z,10.25
2023-02-09T15:51:39.573Z,10.35
2023-02-09T15:54:12.348Z,11.43
2023-02-09T15:56:39.307Z,11.70
2023-02-09T15:59:06.300Z,10.20
2023-02-09T16:01:37.127Z,10.80
2023-02-09T16:04:13.926Z,10.73
2023-02-09T16:06:50.017Z,11.60
2023-02-09T16:09:27.584Z,10.32
2023-02-09T16:11:54.791Z,11.10
2023-02-09T16:14:23.807Z,10.73
2023-02-09T16:16:50.715Z,10.85
2023-02-09T16:19:17.816Z,11.32
2023-02-09T16:21:47.383Z,12.73
2023-02-09T16:24:26.335Z,10.93
2023-02-09T16:26:52.991Z,10.88
2023-02-09T16:29:19.763Z,24.00
2023-02-09T16:31:46.532Z,16.13
2023-02-09T16:34:15.584Z,12.57
2023-02-09T16:36:43.174Z,12.02
2023-02-09T16:39:18.119Z,12.13
2023-02-09T16:41:50.557Z,11.98
2023-02-09T16:44:21.917Z,11.80
2023-02-09T16:46:54.405Z,10.25
2023-02-09T16:49:40.337Z,10.40
2023-02-09T16:52:21.703Z,11.27
2023-02-09T16:54:52.056Z,11.10
2023-02-09T16:57:20.963Z,11.77
2023-02-09T16:59:47.713Z,10.77
2023-02-09T17:02:26.105Z,10.95
2023-02-09T17:04:52.766Z,10.13
2023-02-09T17:07:19.511Z,9.43
2023-02-09T17:09:46.182Z,11.65
2023-02-09T17:12:12.826Z,10.07
2023-02-09T17:14:39.510Z,9.93
2023-02-09T17:17:07.271Z,9.82
2023-02-09T17:19:46.076Z,10.18
2023-02-09T17:22:14.381Z,10.45
2023-02-09T17:24:41.028Z,10.38
2023-02-09T17:27:07.689Z,11.88
2023-02-09T17:29:34.729Z,12.35
2023-02-09T17:32:02.582Z,10.02
2023-02-09T17:34:29.522Z,10.45
2023-02-09T17:36:57.261Z,10.90
2023-02-09T17:39:24.336Z,11.75
2023-02-09T17:41:51.221Z,11.32
2023-02-09T17:44:43.367Z,11.70
2023-02-09T17:47:16.683Z,12.68
2023-02-09T17:49:43.452Z,11.30
2023-02-09T17:52:20.268Z,12.13
2023-02-09T17:54:47.627Z,11.93
2023-02-09T17:57:16.240Z,12.57
2023-02-09T17:59:43.226Z,11.95
2023-02-09T18:02:16.650Z,13.40
2023-02-09T18:04:43.818Z,13.70
2023-02-09T18:07:11.448Z,14.88
2023-02-09T18:09:38.296Z,13.50
2023-02-09T18:12:11.498Z,13.30
2023-02-09T18:14:38.164Z,16.27
2023-02-09T18:17:04.970Z,16.20
2023-02-09T18:19:33.004Z,13.80
2023-02-09T18:22:01.684Z,14.30
2023-02-09T18:24:31.128Z,13.13
2023-02-09T18:26:58.694Z,14.93
2023-02-09T18:29:31.782Z,13.07
2023-02-09T18:31:59.783Z,12.45
2023-02-09T18:34:27.555Z,11.45
2023-02-09T18:36:54.341Z,12.25
2023-02-09T18:39:21.145Z,12.23
2023-02-09T18:41:53.963Z,13.00
2023-02-09T18:44:24.355Z,11.98
2023-02-09T18:46:51.200Z,11.82
2023-02-09T18:49:17.851Z,13.18
2023-02-09T18:51:44.491Z,15.00
2023-02-09T18:54:11.329Z,16.33
2023-02-09T18:56:38.034Z,16.77
2023-02-09T18:59:05.118Z,17.95
2023-02-09T19:01:31.964Z,17.52
2023-02-09T19:03:58.657Z,16.30
2023-02-09T19:06:25.391Z,15.30
2023-02-09T19:08:52.427Z,14.93
2023-02-09T19:11:21.867Z,14.18
2023-02-09T19:14:07.581Z,13.27
2023-02-09T19:16:38.153Z,13.63
2023-02-09T19:19:05.100Z,12.90
2023-02-09T19:21:32.307Z,13.43
2023-02-09T19:23:59.061Z,13.40
2023-02-09T19:26:25.820Z,15.02
2023-02-09T19:28:52.581Z,23.88
2023-02-09T19:31:19.265Z,23.02
2023-02-09T19:33:46.003Z,18.95
2023-02-09T19:36:12.889Z,22.23
2023-02-09T19:38:39.559Z,21.10
2023-02-09T19:41:12.019Z,18.90
2023-02-09T19:43:39.738Z,20.20
2023-02-09T19:46:07.373Z,20.10
2023-02-09T19:48:34.051Z,18.33
2023-02-09T19:51:00.776Z,15.98
2023-02-09T19:53:27.623Z,15.38
2023-02-09T19:55:54.799Z,15.23
2023-02-09T19:58:22.045Z,13.73
2023-02-09T20:00:50.339Z,13.45
2023-02-09T20:03:18.044Z,14.07
2023-02-09T20:05:45.840Z,22.15
2023-02-09T20:08:15.667Z,20.92
2023-02-09T20:10:44.079Z,17.75
2023-02-09T20:13:14.619Z,12.98
2023-02-09T20:15:43.438Z,17.52
2023-02-09T20:18:11.381Z,18.45
2023-02-09T20:20:42.942Z,19.53
2023-02-09T20:23:10.062Z,20.00
2023-02-09T20:25:39.845Z,19.85
2023-02-09T20:28:06.560Z,20.73
2023-02-09T20:30:34.309Z,22.55
2023-02-09T20:33:01.016Z,22.77
2023-02-09T20:35:27.708Z,24.98
2023-02-09T20:37:54.401Z,25.05
2023-02-09T20:40:21.675Z,25.77
2023-02-09T20:43:06.877Z,34.10
2023-02-09T20:45:52.522Z,30.48
2023-02-09T20:48:19.864Z,25.42
2023-02-09T20:50:46.969Z,24.77
2023-02-09T20:53:13.933Z,23.45
2023-02-09T20:55:40.665Z,23.30
2023-02-09T20:58:07.317Z,25.10
2023-02-09T21:00:34.126Z,23.77
2023-02-09T21:03:00.869Z,23.02
2023-02-09T21:05:27.687Z,24.10
2023-02-09T21:07:55.375Z,22.15
2023-02-09T21:10:22.232Z,21.10
2023-02-09T21:12:49.024Z,20.65
2023-02-09T21:15:16.403Z,17.45
2023-02-09T21:17:47.913Z,17.98
2023-02-09T21:20:17.866Z,17.52
2023-02-09T21:22:44.679Z,16.92
2023-02-09T21:25:11.788Z,16.67
2023-02-09T21:27:39.008Z,15.95
2023-02-09T21:30:06.529Z,18.27
2023-02-09T21:32:34.970Z,17.70
2023-02-09T21:35:01.823Z,16.20
2023-02-09T21:37:31.846Z,15.63
2023-02-09T21:42:31.181Z,15.00
2023-02-09T21:44:58.771Z,15.73
2023-02-09T21:47:36.843Z,16.13
2023-02-09T21:50:04.920Z,15.30
2023-02-09T21:52:31.788Z,16.10
2023-02-09T21:54:58.418Z,15.93
2023-02-09T21:57:26.013Z,15.23
2023-02-09T21:59:53.145Z,16.17
2023-02-09T22:02:20.395Z,14.65
2023-02-09T22:04:49.709Z,14.50
2023-02-09T22:07:16.574Z,15.80
2023-02-09T22:09:43.197Z,16.30
2023-02-09T22:12:09.846Z,18.02
2023-02-09T22:14:36.544Z,18.50
2023-02-09T22:17:03.475Z,18.85
2023-02-09T22:19:30.362Z,19.42
2023-02-09T22:21:57.986Z,19.20
2023-02-09T22:24:25.185Z,17.33
2023-02-09T22:26:51.912Z,15.90
2023-02-09T22:29:18.916Z,17.70
2023-02-09T22:31:45.985Z,15.90
2023-02-09T22:34:13.310Z,17.42
2023-02-09T22:36:40.056Z,17.42
2023-02-09T22:39:07.826Z,17.83
2023-02-09T22:41:35.087Z,17.80
2023-02-09T22:44:07.023Z,16.90
2023-02-09T22:46:39.194Z,18.45
2023-02-09T22:49:12.778Z,16.80
2023-02-09T22:51:39.417Z,18.23
2023-02-09T22:54:06.719Z,20.73
2023-02-09T22:56:33.996Z,22.67
2023-02-09T22:59:01.631Z,24.33
2023-02-09T23:01:29.517Z,19.05
2023-02-09T23:03:56.703Z,20.85
2023-02-09T23:06:26.971Z,18.20
2023-02-09T23:08:55.819Z,18.23
2023-02-09T23:11:22.750Z,18.55
2023-02-09T23:13:55.073Z,17.02
2023-02-09T23:16:33.861Z,16.88
2023-02-09T23:19:03.300Z,16.48
2023-02-09T23:21:35.327Z,15.77
2023-02-09T23:24:02.373Z,16.65
2023-02-09T23:26:29.035Z,17.10
2023-02-09T23:28:58.263Z,17.75
2023-02-09T23:31:25.741Z,17.35
2023-02-09T23:33:52.955Z,16.58
2023-02-09T23:36:22.456Z,16.83
2023-02-09T23:39:02.956Z,16.17
2023-02-09T23:41:30.309Z,15.05
2023-02-09T23:43:57.110Z,16.35
2023-02-09T23:46:28.452Z,17.10
2023-02-09T23:48:56.275Z,17.38
2023-02-09T23:51:29.590Z,16.02
2023-02-09T23:53:58.036Z,16.35
2023-02-09T23:56:25.808Z,16.23
2023-02-09T23:58:53.343Z,14.95
